Latest Coastal Weather Observations for Holmes Reef

IDQ60701

Issued at 9:52 pm EST Saturday 27 August 2016 (issued every 10 minutes, with the page automatically refreshed every 10 minutes)

About coastal observations | Map of coastal stations | Coastal observations for QLD | Marine services | Other Formats
Station Details ID: 200732 Name: HOLMES REEF Lat: -16.47 Lon: 147.87 Height: 1.9 m
Data from the previous 72 hours. | See also: Recent months at Holmes Reef
Date/Time
EST
Temp
°C
Wind Pressure Rain since
9am
mm
Weather Cloud Vis
km
Sea
Height
m
Swell
Dir  Spd
kts
Gust
kts
hPa Trend Height
m
Period
s
Dir
27/09:30pm 23.0 ESE 23 27 1019.0 - - - - - - - - -
27/09:15pm 22.8 ESE 24 - 1018.7 - - - - - - - - -
27/09:00pm 22.9 ESE 23 28 1019.1 - - - - - - - - -
27/08:30pm 22.9 SE 23 27 1019.2 - - - - - - - - -
27/08:15pm 22.9 ESE 22 - 1018.6 - - - - - - - - -
27/08:00pm 22.9 SE 22 25 1018.9 - - - - - - - - -
27/07:30pm 22.9 SE 22 26 1018.6 - - - - - - - - -
27/07:15pm 23.0 SE 22 - 1018.3 - - - - - - - - -
27/07:00pm 22.9 SE 23 26 1018.5 - - - - - - - - -
27/06:30pm 22.9 SE 22 26 1018.3 - - - - - - - - -
27/06:15pm 22.8 SSE 21 - 1017.9 - - - - - - - - -
27/06:00pm 22.9 SSE 21 24 1018.2 - - - - - - - - -
27/05:30pm 23.0 SSE 21 25 1017.8 - - - - - - - - -
27/05:15pm 22.9 SSE 22 - 1017.3 - - - - - - - - -
27/05:00pm 22.8 SSE 22 25 1017.3 - - - - - - - - -
27/04:30pm 22.8 SSE 22 26 1016.8 - - - - - - - - -
27/04:15pm 22.9 SE 22 - 1016.4 - - - - - - - - -
27/04:00pm 22.9 SSE 21 25 1016.6 - - - - - - - - -
27/03:30pm 22.9 SSE 21 25 1016.4 - - - - - - - - -
27/03:15pm 22.9 SSE 21 - 1016.2 - - - - - - - - -
27/03:00pm 23.0 SSE 21 25 1016.4 - - - - - - - - -
27/02:30pm 23.0 SSE 21 24 1016.6 - - - - - - - - -
27/02:15pm 23.0 SSE 20 - 1016.5 - - - - - - - - -
27/02:00pm 22.8 SE 21 23 1016.8 - - - - - - - - -
27/01:30pm 23.1 SSE 21 24 1017.0 - - - - - - - - -
27/01:15pm 23.0 SE 21 - 1016.9 - - - - - - - - -
27/01:00pm 22.8 SSE 22 25 1017.4 - - - - - - - - -
27/12:30pm 23.0 SSE 21 25 1017.6 - - - - - - - - -
27/12:15pm 23.2 SE 22 - 1017.4 - - - - - - - - -
27/12:00pm 23.1 SE 22 25 1017.8 - - - - - - - - -
27/11:30am 23.0 SSE 22 26 1018.2 - - - - - - - - -
27/11:15am 22.9 SSE 24 - 1017.9 - - - - - - - - -
27/11:00am 23.0 SSE 23 27 1018.4 - - - - - - - - -
27/10:30am 23.6 SSE 24 29 1018.5 - - - - - - - - -
27/10:15am 23.3 SSE 24 - 1018.3 - - - - - - - - -
27/10:00am 23.1 SSE 25 29 1018.6 - - - - - - - - -
27/09:30am 23.2 SSE 24 29 1018.6 - - - - - - - - -
27/09:15am 23.1 SSE 24 - 1018.3 - - - - - - - - -
27/09:00am 23.2 SSE 24 28 1018.6 - - - - - - - - -
27/08:30am 23.2 SSE 25 29 1018.3 - - - - - - - - -
27/08:15am 23.3 SSE 24 - 1018.0 - - - - - - - - -
27/08:00am 23.4 SSE 24 28 1018.0 - - - - - - - - -
27/07:30am 23.3 SSE 25 28 1017.5 - - - - - - - - -
27/07:15am 23.3 SSE 26 - 1017.0 - - - - - - - - -
27/07:00am 23.2 SSE 25 29 1017.3 - - - - - - - - -
27/06:30am 23.5 SSE 23 28 1017.2 - - - - - - - - -
27/06:15am 23.4 SSE 24 - 1016.7 - - - - - - - - -
27/06:00am 23.5 SSE 25 28 1016.8 - - - - - - - - -
27/05:30am 23.2 SSE 23 27 1016.4 - - - - - - - - -
27/05:15am 23.3 SSE 23 - 1015.9 - - - - - - - - -
27/05:00am 23.3 SSE 25 27 1016.0 - - - - - - - - -
27/04:30am 23.5 SSE 26 29 1015.5 - - - - - - - - -
27/04:15am 23.7 SSE 26 - 1015.0 - - - - - - - - -
27/04:00am 23.6 SSE 24 28 1015.7 - - - - - - - - -
27/03:30am 23.7 SSE 25 29 1015.6 - - - - - - - - -
27/03:15am 23.9 SSE 24 - 1015.1 - - - - - - - - -
27/03:00am 24.2 SSE 23 27 1015.7 - - - - - - - - -
27/02:30am 24.0 SE 21 24 1015.5 - - - - - - - - -
27/02:15am 23.9 SE 22 - 1015.3 - - - - - - - - -
27/02:00am 24.0 SE 21 24 1015.5 - - - - - - - - -
27/01:30am 24.0 SSE 24 27 1015.5 - - - - - - - - -
27/01:15am 24.0 SSE 23 - 1015.3 - - - - - - - - -
27/01:00am 24.2 SSE 23 26 1015.9 - - - - - - - - -
27/12:30am 24.0 SSE 22 26 1016.1 - - - - - - - - -
27/12:15am 23.8 SSE 23 - 1015.7 - - - - - - - - -
27/12:00am 23.6 SSE 20 23 1016.2 - - - - - - - - -
 
Date/Time
EST
Temp
°C
Wind Pressure Rain since
9am
mm
Weather Cloud Vis
km
Sea
Height
m
Swell
Dir  Spd
kts
Gust
kts
hPa Trend Height
m
Period
s
Dir
26/11:30pm 24.1 SSE 20 22 1016.0 - - - - - - - - -
26/11:15pm 24.0 SE 19 - 1015.6 - - - - - - - - -
26/11:00pm 24.2 SE 20 23 1016.0 - - - - - - - - -
26/10:30pm 24.2 SSE 21 24 1015.9 - - - - - - - - -
26/10:15pm 24.2 SE 20 - 1015.5 - - - - - - - - -
26/10:00pm 24.2 SE 20 23 1015.6 - - - - - - - - -
26/09:30pm 24.0 SE 20 22 1015.2 - - - - - - - - -
26/09:15pm 24.4 SE 19 - 1014.8 - - - - - - - - -
26/09:00pm 24.3 SSE 19 22 1015.2 - - - - - - - - -
26/08:30pm 24.3 SE 19 22 1015.0 - - - - - - - - -
26/08:15pm 24.3 SE 20 - 1014.5 - - - - - - - - -
26/08:00pm 24.3 SE 19 21 1014.7 - - - - - - - - -
26/07:30pm 24.1 SE 20 21 1014.3 - - - - - - - - -
26/07:15pm 24.2 SE 19 - 1013.9 - - - - - - - - -
26/07:00pm 23.9 SE 20 22 1014.1 - - - - - - - - -
26/06:30pm 24.0 SE 20 22 1013.7 - - - - - - - - -
26/06:15pm 24.1 SSE 21 - 1013.2 - - - - - - - - -
26/06:00pm 24.2 SSE 20 23 1013.4 - - - - - - - - -
26/05:30pm 23.9 S 22 26 1013.3 - - - - - - - - -
26/05:15pm 24.1 S 20 - 1012.9 - - - - - - - - -
26/05:00pm 23.8 S 22 25 1013.0 - - - - - - - - -
26/04:30pm 24.0 S 21 24 1012.4 - - - - - - - - -
26/04:15pm 24.2 SSE 21 - 1012.1 - - - - - - - - -
26/04:00pm 24.2 SSE 20 22 1012.2 - - - - - - - - -
26/03:30pm 24.3 SSE 21 24 1012.2 - - - - - - - - -
26/03:15pm 24.2 S 21 - 1011.9 - - - - - - - - -
26/03:00pm 24.1 S 23 27 1012.3 - - - - - - - - -
26/02:30pm 24.4 S 21 24 1012.5 - - - - - - - - -
26/02:15pm 24.3 SSE 21 - 1012.2 - - - - - - - - -
26/02:00pm 24.5 S 21 24 1012.6 - - - - - - - - -
26/01:30pm 24.8 SSE 20 22 1012.7 - - - - - - - - -
26/01:15pm 24.8 S 20 - 1012.6 - - - - - - - - -
26/01:00pm 24.8 S 19 21 1013.0 - - - - - - - - -
26/12:30pm 24.8 S 19 22 1013.0 - - - - - - - - -
26/12:15pm 24.8 S 18 - 1012.8 - - - - - - - - -
26/12:00pm 24.8 S 19 21 1013.2 - - - - - - - - -
26/11:30am 24.8 S 18 21 1013.5 - - - - - - - - -
26/11:15am 25.0 S 18 - 1013.4 - - - - - - - - -
26/11:00am 24.8 S 18 20 1013.8 - - - - - - - - -
26/10:30am 24.8 S 17 19 1013.9 - - - - - - - - -
26/10:15am 24.8 SSE 18 - 1013.8 - - - - - - - - -
26/10:00am 24.8 SSE 19 21 1014.1 - - - - - - - - -
26/09:30am 25.0 S 17 21 1014.4 - - - - - - - - -
26/09:15am 25.1 S 14 - 1014.1 - - - - - - - - -
26/09:00am 25.7 S 11 13 1014.3 - - - - - - - - -
26/08:30am 25.6 SSE 9 11 1014.0 - - - - - - - - -
26/08:15am 25.6 S 9 - 1013.7 - - - - - - - - -
26/08:00am 25.6 SSE 9 10 1013.9 - - - - - - - - -
26/07:30am 25.5 S 8 9 1013.6 - - - - - - - - -
26/07:15am 25.4 SSE 7 - 1013.0 - - - - - - - - -
26/07:00am 25.4 SSE 7 8 1013.1 - - - - - - - - -
26/06:30am 25.1 SSE 7 8 1012.8 - - - - - - - - -
26/06:15am 25.1 S 8 - 1012.3 - - - - - - - - -
26/06:00am 25.1 S 8 9 1012.6 - - - - - - - - -
26/05:30am 25.2 S 8 9 1012.1 - - - - - - - - -
26/05:15am 25.2 S 9 - 1011.5 - - - - - - - - -
26/05:00am 25.3 S 9 9 1011.7 - - - - - - - - -
26/04:30am 25.3 S 8 9 1011.6 - - - - - - - - -
26/04:15am 25.3 SSE 7 - 1011.0 - - - - - - - - -
26/04:00am 25.3 SSE 7 8 1011.0 - - - - - - - - -
26/03:30am 25.2 SSE 8 9 1011.1 - - - - - - - - -
26/03:15am 25.2 SSE 9 - 1010.9 - - - - - - - - -
26/03:00am 25.3 SSE 9 10 1011.3 - - - - - - - - -
26/02:30am 25.2 SE 8 9 1011.4 - - - - - - - - -
26/02:15am 25.2 SE 9 - 1011.1 - - - - - - - - -
26/02:00am 25.2 SE 9 10 1011.7 - - - - - - - - -
26/01:30am 25.2 SE 10 11 1011.8 - - - - - - - - -
26/01:15am 25.2 SE 10 - 1011.6 - - - - - - - - -
26/01:00am 25.2 SE 11 12 1012.1 - - - - - - - - -
26/12:30am 25.1 SE 12 13 1012.4 - - - - - - - - -
26/12:15am 25.2 SE 12 - 1012.1 - - - - - - - - -
26/12:00am 25.3 SE 12 13 1012.7 - - - - - - - - -
 
Date/Time
EST
Temp
°C
Wind Pressure Rain since
9am
mm
Weather Cloud Vis
km
Sea
Height
m
Swell
Dir  Spd
kts
Gust
kts
hPa Trend Height
m
Period
s
Dir
25/11:30pm 25.2 SE 12 13 1012.7 - - - - - - - - -
25/11:15pm 25.2 SE 13 - 1012.5 - - - - - - - - -
25/11:00pm 25.1 SE 13 15 1012.8 - - - - - - - - -
25/10:30pm 25.1 SE 14 15 1012.7 - - - - - - - - -
25/10:15pm 25.2 ESE 14 - 1012.2 - - - - - - - - -
25/10:00pm 25.2 ESE 14 16 1012.7 - - - - - - - - -
25/09:30pm 25.1 ESE 15 17 1012.5 - - - - - - - - -
25/09:15pm 25.2 ESE 15 - 1012.2 - - - - - - - - -
25/09:00pm 25.2 ESE 15 17 1012.4 - - - - - - - - -
25/08:30pm 25.1 ESE 16 17 1012.3 - - - - - - - - -
25/08:15pm 25.2 ESE 16 - 1012.0 - - - - - - - - -
25/08:00pm 25.1 ESE 17 19 1011.9 - - - - - - - - -
25/07:30pm 25.2 SE 15 17 1011.8 - - - - - - - - -
25/07:15pm 25.1 SE 15 - 1011.4 - - - - - - - - -
25/07:00pm 25.1 SE 15 17 1011.5 - - - - - - - - -
25/06:30pm 25.0 SE 16 17 1011.3 - - - - - - - - -
25/06:15pm 25.1 SE 15 - 1010.9 - - - - - - - - -
25/06:00pm 24.9 SE 16 17 1011.0 - - - - - - - - -
25/05:30pm 25.0 SSE 15 17 1010.9 - - - - - - - - -
25/05:15pm 25.1 SSE 14 - 1010.4 - - - - - - - - -
25/05:00pm 24.9 SSE 14 15 1010.6 - - - - - - - - -
25/04:30pm 24.9 SSE 14 17 1010.2 - - - - - - - - -
25/04:15pm 24.8 SSE 14 - 1009.8 - - - - - - - - -
25/04:00pm 25.0 SSE 15 16 1009.9 - - - - - - - - -
25/03:30pm 24.9 SSE 13 15 1009.6 - - - - - - - - -
25/03:15pm 24.9 SSE 13 - 1009.3 - - - - - - - - -
25/03:00pm 25.1 S 12 14 1009.5 - - - - - - - - -
25/02:30pm 26.2 N 7 8 1009.5 - - - - - - - - -
25/02:15pm 26.1 N 7 - 1009.4 - - - - - - - - -
25/02:00pm 26.0 N 8 9 1009.9 - - - - - - - - -
25/01:30pm 26.0 N 8 9 1009.9 - - - - - - - - -
25/01:15pm 26.0 N 8 - 1009.7 - - - - - - - - -
25/01:00pm 26.0 NNW 7 8 1010.3 - - - - - - - - -
25/12:30pm 26.0 N 7 8 1010.6 - - - - - - - - -
25/12:15pm 26.0 N 8 - 1010.3 - - - - - - - - -
25/12:00pm 25.9 N 8 13 1010.7 - - - - - - - - -
25/11:30am 26.2 N 6 7 1011.3 - - - - - - - - -
25/11:15am 26.2 N 7 - 1011.2 - - - - - - - - -
25/11:00am 26.0 N 7 8 1011.7 - - - - - - - - -
25/10:30am 26.0 N 6 8 1012.0 - - - - - - - - -
25/10:15am 26.1 N 7 - 1011.8 - - - - - - - - -
25/10:00am 26.1 N 7 8 1012.2 - - - - - - - - -
25/09:30am 26.1 N 7 8 1012.1 - - - - - - - - -
25/09:15am 26.0 N 6 - 1011.7 - - - - - - - - -
25/09:00am 26.0 N 6 7 1011.9 - - - - - - - - -
25/08:30am 26.0 N 7 7 1011.8 - - - - - - - - -
25/08:15am 25.9 N 7 - 1011.5 - - - - - - - - -
25/08:00am 26.0 N 8 9 1011.6 - - - - - - - - -
25/07:30am 25.9 N 8 9 1011.6 - - - - - - - - -
25/07:15am 25.9 N 8 - 1011.2 - - - - - - - - -
25/07:00am 25.8 N 9 10 1011.3 - - - - - - - - -
25/06:30am 25.9 N 7 8 1011.1 - - - - - - - - -
25/06:15am 25.8 N 8 - 1010.5 - - - - - - - - -
25/06:00am 25.9 N 8 9 1010.7 - - - - - - - - -
25/05:30am 25.8 N 9 11 1010.6 - - - - - - - - -
25/05:15am 25.8 N 9 - 1010.1 - - - - - - - - -
25/05:00am 25.8 N 9 10 1010.3 - - - - - - - - -
25/04:30am 25.7 N 10 12 1010.1 - - - - - - - - -
25/04:15am 25.7 N 11 - 1009.7 - - - - - - - - -
25/04:00am 25.7 N 11 13 1009.9 - - - - - - - - -
25/03:30am 25.7 N 11 13 1009.7 - - - - - - - - -
25/03:15am 25.7 N 12 - 1009.4 - - - - - - - - -
25/03:00am 25.7 N 12 14 1009.8 - - - - - - - - -
25/02:30am 25.7 N 13 15 1009.9 - - - - - - - - -
25/02:15am 25.7 N 13 - 1009.6 - - - - - - - - -
25/02:00am 25.7 N 13 16 1009.9 - - - - - - - - -
25/01:30am 25.7 N 13 15 1010.0 - - - - - - - - -
25/01:15am 25.7 N 12 - 1009.9 - - - - - - - - -
25/01:00am 25.8 N 12 13 1010.5 - - - - - - - - -
25/12:30am 25.8 N 12 14 1010.8 - - - - - - - - -
25/12:15am 25.7 N 12 - 1010.5 - - - - - - - - -
25/12:00am 25.8 N 11 13 1010.9 - - - - - - - - -
 
Date/Time
EST
Temp
°C
Wind Pressure Rain since
9am
mm
Weather Cloud Vis
km
Sea
Height
m
Swell
Dir  Spd
kts
Gust
kts
hPa Trend Height
m
Period
s
Dir
24/11:30pm 25.8 N 12 14 1011.1 - - - - - - - - -
24/11:15pm 25.8 N 13 - 1010.8 - - - - - - - - -
24/11:00pm 25.8 NNE 12 15 1011.0 - - - - - - - - -
24/10:30pm 25.8 N 12 14 1011.2 - - - - - - - - -
24/10:15pm 25.9 N 12 - 1011.0 - - - - - - - - -
24/10:00pm 25.9 N 12 14 1011.4 - - - - - - - - -

Other Formats:

Comma delimited format used in spreadsheet applications
http://www.bom.gov.au/fwo/IDQ60701/IDQ60701.94289.axf

JavaScript Object Notation format (JSON) in row-major order
http://www.bom.gov.au/fwo/IDQ60701/IDQ60701.94289.json